Time;durP1;ratioP1;P1;durP2;ratioP2;P2;SDS_P1;SDS_P2;PMS_P1;PMS_P2;Temp;Humidity;BMP_temperature;BMP_pressure;BME280_temperature;BME280_humidity;BME280_pressure;Samples;Min_cycle;Max_cycle;Signal;HPM_P1;HPM_P2
2023/04/11 00:05:32;;;;;;;11.67;8.73;;;;;;;10.56;100.00;99034.84;4445915;27;20279379;-50
2023/04/11 00:08:25;;;;;;;12.43;8.90;;;;;;;10.52;100.00;99033.25;5148737;27;20193;-49
2023/04/11 00:17:22;;;;;;;9.50;8.50;;;;;;;10.37;100.00;99031.22;5146219;27;20204;-49
2023/04/11 00:23:15;;;;;;;10.53;9.17;;;;;;;10.34;100.00;99028.72;5147764;27;20641;-57
2023/04/11 00:26:15;;;;;;;11.30;10.07;;;;;;;10.33;100.00;99029.63;5147652;27;20200;-57
2023/04/11 00:29:15;;;;;;;12.23;9.87;;;;;;;10.33;100.00;99030.47;5148729;27;20200;-58
2023/04/11 00:32:16;;;;;;;10.37;8.60;;;;;;;10.39;100.00;99027.63;5147899;27;20193;-58
2023/04/11 00:35:14;;;;;;;10.20;9.03;;;;;;;10.41;100.00;99027.59;5147740;27;20194;-58
2023/04/11 00:44:03;;;;;;;11.47;9.87;;;;;;;10.50;100.00;99029.84;5147677;27;20254;-49
2023/04/11 00:47:06;;;;;;;9.73;8.73;;;;;;;10.51;100.00;99021.16;5146813;27;20206;-50
2023/04/11 00:53:05;;;;;;;10.60;9.37;;;;;;;10.54;100.00;99023.66;5146293;27;20657;-50
2023/04/11 00:55:59;;;;;;;10.43;9.30;;;;;;;10.48;100.00;99010.91;5147245;27;20579;-50
2023/04/11 00:58:52;;;;;;;10.23;9.23;;;;;;;10.48;100.00;99024.75;5147464;27;20220;-58
2023/04/11 01:01:43;;;;;;;9.40;8.50;;;;;;;10.49;100.00;99029.03;5147213;27;20229;-58
2023/04/11 01:04:30;;;;;;;10.07;9.07;;;;;;;10.59;100.00;99028.69;5147103;27;20256;-58
2023/04/11 01:10:43;;;;;;;8.50;7.70;;;;;;;10.47;100.00;99028.22;5144292;27;20193;-50
2023/04/11 01:13:29;;;;;;;9.00;8.10;;;;;;;10.45;100.00;99026.59;5147293;27;20213;-48
2023/04/11 01:19:43;;;;;;;11.07;8.17;;;;;;;10.48;100.00;99029.09;5129935;27;20232;-57
2023/04/11 01:31:58;;;;;;;9.97;8.97;;;;;;;10.62;100.00;99018.16;5129716;27;20304;-58
2023/04/11 01:38:03;;;;;;;9.10;8.30;;;;;;;10.61;100.00;99013.91;5129875;27;20272;-57
2023/04/11 01:40:53;;;;;;;9.53;8.53;;;;;;;10.53;100.00;99015.03;5132954;27;20198;-57
2023/04/11 01:43:44;;;;;;;12.00;8.70;;;;;;;10.49;100.00;99007.44;5133484;27;20197;-57
2023/04/11 01:55:56;;;;;;;11.23;9.50;;;;;;;10.64;100.00;99004.25;5132379;27;20569;-48
2023/04/11 01:58:45;;;;;;;9.93;8.93;;;;;;;10.60;100.00;98997.50;5130521;27;20201;-50
2023/04/11 02:02:08;;;;;;;10.53;9.40;;;;;;;10.55;100.00;98997.66;5132235;27;20197;-51
2023/04/11 02:04:55;;;;;;;10.47;8.80;;;;;;;10.54;100.00;98995.13;5132047;27;20598;-50
2023/04/11 02:11:15;;;;;;;10.67;9.30;;;;;;;10.48;100.00;98990.16;5129501;27;20635;-51
2023/04/11 02:14:16;;;;;;;9.93;8.57;;;;;;;10.52;100.00;98989.13;5132807;27;20221;-58
2023/04/11 02:17:11;;;;;;;9.63;8.67;;;;;;;10.53;100.00;98983.03;5132379;27;20741;-57
2023/04/11 02:20:26;;;;;;;;;;;;;;;;;;;;;
2023/04/11 02:23:14;;;;;;;9.77;8.77;;;;;;;10.44;100.00;98981.63;5131827;27;20206;-57
2023/04/11 02:29:33;;;;;;;10.70;8.60;;;;;;;10.46;100.00;98981.59;5129113;27;20219;-49
2023/04/11 02:38:42;;;;;;;11.53;9.37;;;;;;;10.54;100.00;98976.94;5131446;27;20765;-49
2023/04/11 02:47:58;;;;;;;8.90;7.90;;;;;;;10.55;100.00;98957.88;5129498;27;20258;-49
2023/04/11 02:53:45;;;;;;;13.07;8.87;;;;;;;10.48;100.00;98943.47;5130505;27;20224;-58
2023/04/11 02:56:37;;;;;;;10.83;9.57;;;;;;;10.39;100.00;98946.38;5131794;27;20229;-57
2023/04/11 02:59:14;;;;;;;11.43;9.80;;;;;;;10.40;100.00;98933.34;5131371;27;20286;-49
2023/04/11 03:01:49;;;;;;;11.37;9.37;;;;;;;10.30;100.00;98939.78;5130995;27;20193;-49
2023/04/11 03:04:21;;;;;;;12.23;9.90;;;;;;;10.24;100.00;98931.41;5131049;27;20902;-50
2023/04/11 03:06:55;;;;;;;11.87;10.03;;;;;;;10.23;100.00;98942.66;5131174;27;20194;-57
2023/04/11 03:09:34;;;;;;;10.97;9.23;;;;;;;10.24;100.00;98934.84;5131406;27;20280;-57
2023/04/11 03:12:06;;;;;;;11.10;9.63;;;;;;;10.23;100.00;98932.28;5131490;27;20195;-57
2023/04/11 03:15:14;;;;;;;12.67;9.67;;;;;;;10.33;100.00;98938.84;5131202;27;20310;-58
2023/04/11 03:18:03;;;;;;;10.83;8.73;;;;;;;10.36;100.00;98938.72;5131280;27;20631;-57
2023/04/11 03:20:46;;;;;;;11.03;9.10;;;;;;;10.28;100.00;98931.22;5130618;27;20288;-58
2023/04/11 03:23:19;;;;;;;10.87;9.37;;;;;;;10.31;100.00;98935.44;5131349;27;20193;-57
2023/04/11 03:25:55;;;;;;;11.30;9.30;;;;;;;10.31;100.00;98931.09;5131371;27;20515;-57
2023/04/11 03:28:30;;;;;;;10.60;8.67;;;;;;;10.37;100.00;98935.22;5130582;27;20225;-57
2023/04/11 03:31:11;;;;;;;9.70;8.70;;;;;;;10.29;100.00;98932.06;5129478;27;20224;-49
2023/04/11 03:33:46;;;;;;;9.73;8.73;;;;;;;10.29;100.00;98926.88;5128466;27;20217;-49
2023/04/11 03:36:18;;;;;;;11.17;8.57;;;;;;;10.31;100.00;98925.06;5126088;27;20657;-49
2023/04/11 03:38:56;;;;;;;10.17;9.00;;;;;;;10.31;100.00;98932.84;5126905;27;20186;-48
2023/04/11 03:41:35;;;;;;;8.70;7.90;;;;;;;10.31;100.00;98925.91;5127564;27;20258;-49
2023/04/11 03:44:06;;;;;;;9.53;8.60;;;;;;;10.27;100.00;98928.69;5126772;27;20696;-49
2023/04/11 03:46:52;;;;;;;9.57;8.57;;;;;;;10.32;100.00;98924.16;5129493;27;20194;-56
2023/04/11 03:49:42;;;;;;;9.10;8.03;;;;;;;10.32;100.00;98930.19;5129838;27;20714;-57
2023/04/11 03:52:33;;;;;;;11.30;8.47;;;;;;;10.29;100.00;98916.50;5129214;27;20664;-49
2023/04/11 03:58:15;;;;;;;11.30;8.20;;;;;;;10.27;100.00;98915.72;5130225;27;20194;-50
2023/04/11 04:01:28;;;;;;;7.80;7.10;;;;;;;10.21;100.00;98919.38;5130232;28;20197;-50
2023/04/11 04:04:16;;;;;;;8.90;7.03;;;;;;;10.26;99.89;98911.44;5129552;28;20221;-48
2023/04/11 04:09:57;;;;;;;8.17;7.37;;;;;;;10.31;98.74;98904.31;5130124;28;20275;-49
2023/04/11 04:12:34;;;;;;;8.23;7.27;;;;;;;10.29;98.41;98911.31;5117332;27;20682;-49
2023/04/11 04:15:14;;;;;;;7.97;6.63;;;;;;;10.24;98.94;98910.66;5108840;28;20222;-48
2023/04/11 04:17:48;;;;;;;7.67;6.93;;;;;;;10.26;99.14;98906.25;5109199;28;20232;-48
2023/04/11 04:20:24;;;;;;;7.73;7.03;;;;;;;10.25;97.92;98912.34;5106609;28;20218;-50
2023/04/11 04:22:52;;;;;;;7.10;6.50;;;;;;;10.32;97.33;98906.84;5107518;28;20214;-49
2023/04/11 04:25:37;;;;;;;7.40;6.80;;;;;;;10.27;96.09;98913.13;5106773;28;20748;-57
2023/04/11 04:28:34;;;;;;;;;;;;;;;;;;;;;
2023/04/11 04:31:04;;;;;;;8.23;6.90;;;;;;;10.29;96.77;98912.16;5121973;28;20222;-49
2023/04/11 04:33:35;;;;;;;8.07;7.33;;;;;;;10.35;96.05;98903.31;5129197;28;20221;-51
2023/04/11 04:36:23;;;;;;;8.27;7.33;;;;;;;10.36;96.63;98897.22;5130092;28;20221;-57
2023/04/11 04:39:01;;;;;;;7.57;6.97;;;;;;;10.37;95.96;98911.88;5126761;28;20248;-49
2023/04/11 04:42:08;;;;;;;7.73;6.93;;;;;;;10.39;95.54;98902.28;5129752;28;20713;-58
2023/04/11 04:44:56;;;;;;;8.10;7.30;;;;;;;10.37;94.97;98894.56;5130202;28;20700;-57
2023/04/11 04:47:47;;;;;;;8.37;7.57;;;;;;;10.46;94.71;98893.38;5127915;28;20226;-51
2023/04/11 04:50:54;;;;;;;8.47;7.60;;;;;;;10.46;95.02;98895.97;5128669;27;20248;-50
2023/04/11 04:53:44;;;;;;;10.37;7.37;;;;;;;10.45;94.96;98900.31;5124683;27;20816;-58
2023/04/11 05:03:09;;;;;;;10.30;8.30;;;;;;;10.65;93.36;98883.13;5109177;28;20208;-47
2023/04/11 05:06:11;;;;;;;9.27;7.80;;;;;;;10.62;93.32;98880.63;5090665;28;20191;-51
2023/04/11 05:08:50;;;;;;;9.37;8.43;;;;;;;10.58;93.61;98882.53;5092226;28;20210;-48
2023/04/11 05:14:35;;;;;;;8.33;7.53;;;;;;;10.71;92.71;98878.56;5091667;28;20619;-49
2023/04/11 05:17:17;;;;;;;8.30;7.50;;;;;;;10.75;92.89;98880.09;5092433;28;20231;-49
2023/04/11 05:23:26;;;;;;;9.13;8.23;;;;;;;11.10;90.95;98890.81;5089906;28;20206;-56
2023/04/11 05:26:24;;;;;;;11.20;9.03;;;;;;;11.26;90.10;98891.91;5092315;28;20195;-57
2023/04/11 05:29:05;;;;;;;12.53;9.47;;;;;;;11.39;88.50;98881.84;5093209;27;20218;-57
2023/04/11 05:35:33;;;;;;;10.13;9.07;;;;;;;11.72;86.45;98889.94;5111440;28;20645;-49
2023/04/11 05:41:20;;;;;;;12.63;9.03;;;;;;;12.39;81.44;98892.16;5111902;28;20248;-57
2023/04/11 05:44:10;;;;;;;10.40;9.30;;;;;;;12.53;80.05;98884.53;5112208;28;20194;-59
2023/04/11 05:49:54;;;;;;;11.97;9.33;;;;;;;13.15;75.82;98878.97;5111743;28;20202;-59
2023/04/11 05:52:40;;;;;;;12.67;9.13;;;;;;;13.43;73.98;98878.44;5112575;28;20702;-58
2023/04/11 05:56:07;;;;;;;11.80;8.87;;;;;;;13.49;73.79;98875.53;5112428;28;20314;-60
2023/04/11 05:59:01;;;;;;;11.33;9.27;;;;;;;13.69;71.95;98879.72;5112164;28;20191;-58
2023/04/11 06:01:32;;;;;;;11.63;9.47;;;;;;;13.82;71.30;98876.38;5112446;28;20638;-58
2023/04/11 06:03:59;;;;;;;9.60;8.60;;;;;;;13.82;70.62;98881.59;5121099;27;20240;-58
2023/04/11 06:06:26;;;;;;;11.93;8.97;;;;;;;13.72;70.66;98885.63;5132840;27;20271;-59
2023/04/11 06:08:55;;;;;;;10.70;9.70;;;;;;;13.53;71.44;98881.44;5132718;27;20194;-50
2023/04/11 06:11:24;;;;;;;9.87;8.70;;;;;;;13.41;72.35;98880.28;5132553;27;20194;-48
2023/04/11 06:13:51;;;;;;;8.40;7.70;;;;;;;13.20;73.22;98883.97;5132221;27;20194;-50
2023/04/11 06:16:18;;;;;;;10.50;8.13;;;;;;;13.03;73.63;98876.94;5132387;27;20225;-50
2023/04/11 06:18:45;;;;;;;8.30;7.40;;;;;;;12.86;74.04;98867.34;5132041;27;20193;-50
2023/04/11 06:21:12;;;;;;;8.23;7.33;;;;;;;12.76;74.13;98873.88;5132381;27;20627;-49
2023/04/11 06:23:39;;;;;;;8.60;7.70;;;;;;;12.82;74.26;98868.41;5132048;27;20247;-49
2023/04/11 06:26:08;;;;;;;7.67;6.87;;;;;;;12.80;73.55;98866.78;5132174;27;20297;-49
2023/04/11 06:32:19;;;;;;;7.90;7.17;;;;;;;12.60;74.34;98857.31;5126746;27;20262;-48
2023/04/11 06:35:04;;;;;;;9.63;7.10;;;;;;;12.63;74.68;98862.41;5129115;27;20670;-50
2023/04/11 06:40:53;;;;;;;8.27;6.73;;;;;;;12.65;73.97;98850.97;5088338;28;20217;-50
2023/04/11 06:46:33;;;;;;;9.23;6.20;;;;;;;12.78;71.66;98859.03;5109172;28;20199;-50
2023/04/11 06:49:35;;;;;;;7.13;6.43;;;;;;;12.87;71.47;98855.13;5111194;28;20203;-50
2023/04/11 06:55:10;;;;;;;6.70;6.07;;;;;;;12.82;70.67;98844.97;5109275;28;20307;-50
2023/04/11 06:57:49;;;;;;;11.33;6.27;;;;;;;12.81;70.34;98848.47;5110729;28;20198;-49
2023/04/11 07:06:36;;;;;;;6.67;6.07;;;;;;;12.86;69.95;98843.06;5090350;28;20329;-59
2023/04/11 07:09:53;;;;;;;8.33;7.03;;;;;;;12.79;69.67;98845.09;5090556;28;20199;-58
2023/04/11 07:34:41;;;;;;;12.07;9.57;;;;;;;13.50;65.57;98842.47;5086114;28;20721;-50
2023/04/11 07:37:40;;;;;;;14.47;10.73;;;;;;;13.63;65.70;98848.75;5089947;28;20199;-50
2023/04/11 07:40:44;;;;;;;19.90;11.17;;;;;;;13.78;64.49;98848.78;5089952;28;20602;-49
2023/04/11 07:46:46;;;;;;;16.30;11.70;;;;;;;14.38;61.21;98856.84;5088590;28;20217;-50
2023/04/11 07:52:51;;;;;;;18.90;11.53;;;;;;;14.59;60.03;98854.03;5087446;28;20248;-50
2023/04/11 07:55:46;;;;;;;13.47;11.60;;;;;;;14.67;59.22;98854.47;5089438;28;20226;-49
2023/04/11 08:01:56;;;;;;;14.77;11.33;;;;;;;14.47;59.14;98845.94;5088762;28;20268;-50
2023/04/11 08:11:39;;;;;;;16.47;12.03;;;;;;;14.31;58.79;98828.56;5130514;28;20284;-58
2023/04/11 08:14:43;;;;;;;17.83;11.50;;;;;;;14.27;59.33;98821.81;5129766;28;20198;-49
2023/04/11 08:18:14;;;;;;;16.63;12.50;;;;;;;14.36;59.74;98816.94;5130462;28;20670;-51
2023/04/11 08:21:13;;;;;;;28.53;11.97;;;;;;;14.36;59.53;98819.56;5114787;28;20701;-50
2023/04/11 08:24:41;;;;;;;18.00;12.27;;;;;;;14.41;58.66;98817.56;5110317;28;20202;-57
2023/04/11 08:27:27;;;;;;;27.60;12.63;;;;;;;14.33;58.58;98816.28;5110530;28;20204;-50
2023/04/11 08:30:10;;;;;;;27.73;12.87;;;;;;;14.24;58.90;98824.59;5113542;28;20267;-51
2023/04/11 08:33:08;;;;;;;19.40;12.03;;;;;;;14.24;58.21;98815.00;5113564;28;20654;-50
2023/04/11 08:36:23;;;;;;;16.70;11.87;;;;;;;14.34;57.60;98800.50;5112439;28;20698;-49
2023/04/11 08:39:27;;;;;;;19.63;12.63;;;;;;;14.42;57.22;98810.59;5113341;28;20198;-50
2023/04/11 08:42:05;;;;;;;19.07;12.67;;;;;;;14.49;57.61;98809.31;5113316;28;20223;-48
2023/04/11 08:45:02;;;;;;;15.30;12.33;;;;;;;14.64;57.47;98799.78;5113042;28;20190;-50
2023/04/11 08:47:54;;;;;;;17.30;12.23;;;;;;;14.72;57.20;98787.09;5112727;28;20198;-51
2023/04/11 08:50:54;;;;;;;17.03;12.47;;;;;;;14.61;57.45;98805.16;5113361;28;20742;-49
2023/04/11 08:54:00;;;;;;;15.23;11.97;;;;;;;14.73;57.24;98794.03;5113270;28;20199;-50
2023/04/11 08:56:58;;;;;;;21.77;11.90;;;;;;;14.86;56.20;98792.41;5113081;28;20227;-51
2023/04/11 09:03:04;;;;;;;16.70;12.33;;;;;;;14.95;56.39;98791.84;5111738;28;20199;-57
2023/04/11 09:11:55;;;;;;;19.87;12.90;;;;;;;15.00;55.35;98771.53;5112792;28;20711;-48
2023/04/11 09:14:27;;;;;;;13.93;12.00;;;;;;;15.06;55.26;98773.78;5112375;28;20201;-49
2023/04/11 09:17:26;;;;;;;17.57;12.20;;;;;;;15.12;54.54;98768.16;5112168;27;20322;-50
2023/04/11 09:20:34;;;;;;;11.93;10.73;;;;;;;15.24;54.54;98767.44;5115584;27;20214;-49
2023/04/11 09:23:28;;;;;;;14.87;12.20;;;;;;;15.31;54.12;98757.47;5132852;27;20312;-48
2023/04/11 09:26:33;;;;;;;14.73;13.13;;;;;;;15.29;53.81;98751.50;5132198;27;20214;-49
2023/04/11 09:29:18;;;;;;;15.57;11.93;;;;;;;15.31;53.33;98757.47;5124912;27;20218;-51
2023/04/11 09:35:41;;;;;;;13.20;11.43;;;;;;;15.70;52.85;98754.22;5111345;28;20206;-49
2023/04/11 09:38:56;;;;;;;16.00;11.93;;;;;;;15.68;52.98;98745.66;5112288;28;20202;-51
2023/04/11 09:41:39;;;;;;;20.27;12.30;;;;;;;15.51;52.71;98749.25;5111046;27;20281;-51
2023/04/11 09:44:21;;;;;;;20.90;11.87;;;;;;;15.52;53.27;98753.56;5111563;28;20606;-49
2023/04/11 09:47:13;;;;;;;13.33;11.67;;;;;;;15.52;53.20;98745.72;5119894;27;20224;-51
2023/04/11 09:50:16;;;;;;;13.23;11.17;;;;;;;15.80;52.46;98731.78;5130710;27;20226;-50
2023/04/11 09:53:17;;;;;;;16.53;12.23;;;;;;;15.87;52.85;98727.03;5123921;27;20593;-51
2023/04/11 09:56:20;;;;;;;25.43;16.33;;;;;;;15.98;52.50;98722.81;5110659;28;20218;-53
2023/04/11 09:59:04;;;;;;;14.40;12.10;;;;;;;16.08;52.30;98720.44;5112229;28;20195;-58
2023/04/11 10:01:43;;;;;;;13.77;11.57;;;;;;;16.10;52.13;98702.00;5112288;28;20198;-57
2023/04/11 10:04:33;;;;;;;17.80;11.63;;;;;;;16.07;52.08;98723.16;5112036;28;20720;-58
2023/04/11 10:07:32;;;;;;;12.63;11.43;;;;;;;15.96;52.12;98718.59;5111455;28;20199;-58
2023/04/11 10:13:47;;;;;;;13.03;11.70;;;;;;;16.21;51.96;98703.00;5110562;28;20749;-58
2023/04/11 10:17:16;;;;;;;14.30;9.70;;;;;;;16.32;49.93;98704.94;5111904;28;20284;-58
2023/04/11 10:23:21;;;;;;;11.57;10.30;;;;;;;16.67;48.29;98700.03;5117300;27;20201;-57
2023/04/11 10:26:03;;;;;;;11.43;10.30;;;;;;;16.88;48.07;98689.88;5129140;27;20182;-58
2023/04/11 10:28:41;;;;;;;11.73;9.80;;;;;;;17.04;47.34;98696.59;5131523;27;20280;-56
2023/04/11 10:31:16;;;;;;;13.00;10.03;;;;;;;17.04;45.79;98693.16;5129113;27;20208;-57
2023/04/11 10:34:30;;;;;;;11.83;9.57;;;;;;;17.03;45.71;98688.84;5130987;27;20244;-58
2023/04/11 10:37:13;;;;;;;11.03;9.20;;;;;;;17.02;45.68;98684.53;5127161;27;20214;-57
2023/04/11 10:40:10;;;;;;;11.87;9.00;;;;;;;17.06;45.28;98680.75;5129539;27;20186;-57
2023/04/11 10:42:57;;;;;;;9.50;8.50;;;;;;;17.25;45.06;98670.69;5127701;27;20198;-59
2023/04/11 10:45:45;;;;;;;11.03;10.00;;;;;;;17.50;43.78;98671.56;5127985;27;20194;-58
2023/04/11 10:48:29;;;;;;;10.82;8.23;;;;;;;17.74;43.04;98669.88;5128091;27;20198;-58
2023/04/11 10:51:38;;;;;;;11.23;8.60;;;;;;;17.70;42.97;98666.66;5129243;27;20218;-52
2023/04/11 10:54:25;;;;;;;11.27;8.50;;;;;;;17.72;42.77;98659.47;5129872;27;20589;-58
2023/04/11 10:57:16;;;;;;;9.95;8.68;;;;;;;17.71;42.41;98657.84;5130086;27;20217;-58
2023/04/11 11:00:46;;;;;;;13.48;8.18;;;;;;;17.64;42.57;98650.50;5128157;27;20200;-57
2023/04/11 11:03:19;;;;;;;9.65;8.25;;;;;;;17.57;42.28;98646.59;5130080;27;20570;-49
2023/04/11 11:06:18;;;;;;;9.43;8.60;;;;;;;17.52;42.41;98643.44;5130014;27;20305;-50
2023/04/11 11:09:04;;;;;;;9.27;8.45;;;;;;;17.65;42.27;98636.41;5128375;27;20190;-50
2023/04/11 11:11:42;;;;;;;10.80;9.80;;;;;;;17.69;42.60;98630.03;5127368;27;20281;-50
2023/04/11 11:14:34;;;;;;;9.77;8.70;;;;;;;17.69;42.60;98620.38;5130309;27;20206;-49
2023/04/11 11:17:13;;;;;;;9.05;8.02;;;;;;;17.78;41.92;98621.47;5130059;27;20789;-50
2023/04/11 11:20:21;;;;;;;14.05;8.18;;;;;;;17.87;41.81;98615.56;5130404;27;20196;-49
2023/04/11 11:23:10;;;;;;;8.30;7.55;;;;;;;17.84;40.04;98613.13;5130553;27;20612;-49
2023/04/11 11:25:56;;;;;;;8.68;7.78;;;;;;;17.88;40.69;98605.88;5129035;27;20244;-50
2023/04/11 11:28:53;;;;;;;8.98;7.75;;;;;;;18.08;40.39;98603.47;5127159;27;20198;-50
2023/04/11 11:31:51;;;;;;;8.98;8.15;;;;;;;18.13;40.23;98601.34;5126786;27;20802;-49
2023/04/11 11:34:31;;;;;;;8.75;7.95;;;;;;;18.41;39.66;98588.78;5129581;27;20201;-51
2023/04/11 11:37:17;;;;;;;8.25;7.20;;;;;;;18.51;39.86;98589.75;5129408;27;20245;-50
2023/04/11 11:39:59;;;;;;;8.57;7.78;;;;;;;18.75;39.59;98593.16;5129591;27;20201;-49
2023/04/11 11:42:26;;;;;;;10.95;7.10;;;;;;;18.88;38.39;98586.97;5127669;27;20251;-50
2023/04/11 11:45:33;;;;;;;8.13;6.55;;;;;;;18.91;37.19;98590.22;5129574;27;20202;-50
2023/04/11 11:48:01;;;;;;;22.17;7.47;;;;;;;18.83;38.15;98575.03;5124304;27;20209;-50
2023/04/11 11:50:38;;;;;;;7.82;7.20;;;;;;;18.84;39.07;98575.88;5128614;27;20222;-49
2023/04/11 11:53:17;;;;;;;7.45;6.75;;;;;;;18.87;38.96;98586.13;5127243;27;20793;-50
2023/04/11 11:55:54;;;;;;;7.38;6.78;;;;;;;18.83;39.35;98585.56;5125312;27;20234;-52
2023/04/11 11:58:41;;;;;;;7.07;6.30;;;;;;;18.68;38.66;98581.47;5126246;27;20298;-49
2023/04/11 12:01:33;;;;;;;8.35;7.55;;;;;;;18.52;37.18;98578.28;5127650;27;20621;-51
2023/04/11 12:04:18;;;;;;;9.63;7.60;;;;;;;18.20;37.40;98549.19;5126113;27;20218;-50
2023/04/11 12:07:21;;;;;;;7.28;6.57;;;;;;;18.26;38.02;98575.03;5128230;28;20276;-58
2023/04/11 12:10:12;;;;;;;7.70;7.10;;;;;;;18.22;39.05;98570.09;5126882;28;20193;-58
2023/04/11 12:16:10;;;;;;;12.20;7.30;;;;;;;18.24;40.17;98555.91;5127001;28;20198;-50
2023/04/11 12:19:18;;;;;;;8.52;7.63;;;;;;;18.32;40.22;98543.03;5129657;28;20193;-56
2023/04/11 12:22:11;;;;;;;10.77;6.78;;;;;;;18.26;38.71;98542.66;5128745;28;20666;-58
2023/04/11 12:25:12;;;;;;;7.22;6.53;;;;;;;18.25;38.66;98541.81;5127845;28;20704;-57
2023/04/11 12:27:59;;;;;;;7.45;6.80;;;;;;;18.30;38.52;98533.56;5129445;28;20662;-57
2023/04/11 12:30:40;;;;;;;7.75;7.00;;;;;;;18.24;37.87;98527.00;5129891;28;20193;-57
2023/04/11 12:33:19;;;;;;;7.32;6.53;;;;;;;18.20;38.42;98527.34;5129460;28;20202;-50
2023/04/11 12:36:08;;;;;;;8.00;7.32;;;;;;;18.30;38.36;98518.66;5128660;28;20189;-55
2023/04/11 12:38:51;;;;;;;8.52;7.82;;;;;;;18.36;38.35;98523.47;5128582;28;20194;-51
2023/04/11 12:41:37;;;;;;;7.55;7.00;;;;;;;18.47;38.32;98510.34;5129491;28;20194;-50
2023/04/11 12:44:28;;;;;;;8.32;7.05;;;;;;;18.53;38.65;98501.13;5128756;28;20658;-50
2023/04/11 12:47:08;;;;;;;7.93;7.22;;;;;;;18.49;39.10;98495.28;5128128;28;20677;-50
2023/04/11 12:50:04;;;;;;;8.82;8.10;;;;;;;18.29;39.81;98495.13;5127919;28;20205;-50
2023/04/11 12:52:58;;;;;;;8.75;7.35;;;;;;;18.15;39.87;98493.56;5128541;28;20278;-51
2023/04/11 12:58:43;;;;;;;11.70;10.48;;;;;;;17.86;40.60;98482.63;5123291;27;20218;-48
2023/04/11 13:01:20;;;;;;;10.13;9.13;;;;;;;17.89;40.61;98487.66;5128183;28;20218;-50
2023/04/11 13:03:55;;;;;;;8.75;7.93;;;;;;;17.69;41.19;98478.66;5126249;28;20212;-51
2023/04/11 13:06:29;;;;;;;8.57;7.75;;;;;;;17.55;40.41;98476.16;5106183;28;20213;-58
2023/04/11 13:09:06;;;;;;;18.75;7.47;;;;;;;17.39;39.01;98484.31;5102794;28;20224;-57
2023/04/11 13:12:09;;;;;;;6.68;6.07;;;;;;;17.34;39.21;98472.50;5109284;28;20229;-51
2023/04/11 13:15:11;;;;;;;9.20;7.97;;;;;;;17.14;39.54;98475.72;5112394;27;20335;-57
2023/04/11 13:18:02;;;;;;;9.10;7.68;;;;;;;17.14;39.97;98467.88;5111753;28;20379;-58
2023/04/11 13:20:51;;;;;;;10.82;8.82;;;;;;;17.09;40.44;98465.56;5112342;28;20666;-57
2023/04/11 13:26:36;;;;;;;8.63;6.67;;;;;;;17.01;40.09;98458.25;5111597;28;20714;-56
2023/04/11 13:32:22;;;;;;;7.13;6.53;;;;;;;17.04;40.32;98459.84;5103603;27;20725;-49
2023/04/11 13:35:33;;;;;;;10.67;9.63;;;;;;;16.95;40.77;98452.59;5132778;27;20217;-50
2023/04/11 13:38:28;;;;;;;10.43;9.23;;;;;;;16.89;40.31;98453.88;5130310;27;20228;-48
2023/04/11 13:41:37;;;;;;;8.17;7.37;;;;;;;16.92;41.15;98452.84;5132676;27;20247;-49
2023/04/11 13:44:49;;;;;;;7.47;6.90;;;;;;;16.94;41.25;98443.06;5132641;27;20197;-50
2023/04/11 13:47:41;;;;;;;8.30;7.33;;;;;;;16.95;41.61;98448.19;5091476;28;20250;-58
2023/04/11 13:50:19;;;;;;;7.13;6.43;;;;;;;17.02;41.37;98443.38;5100133;28;20222;-57
2023/04/11 13:53:04;;;;;;;7.63;6.93;;;;;;;17.09;41.00;98436.72;5111404;28;20249;-58
2023/04/11 13:56:19;;;;;;;8.90;8.20;;;;;;;17.07;40.96;98443.84;5111299;28;20248;-57
2023/04/11 13:59:25;;;;;;;11.32;8.38;;;;;;;17.12;40.57;98433.88;5111686;28;20751;-57
2023/04/11 14:01:58;;;;;;;9.33;8.03;;;;;;;17.16;38.26;98443.19;5111941;28;20198;-58
2023/04/11 14:04:49;;;;;;;9.20;8.33;;;;;;;17.18;37.68;98449.16;5109376;28;20219;-57
2023/04/11 14:07:21;;;;;;;9.57;8.77;;;;;;;17.14;37.24;98442.47;5110062;28;20191;-57
2023/04/11 14:10:07;;;;;;;7.33;6.63;;;;;;;17.00;37.13;98438.22;5112173;28;20206;-57
2023/04/11 14:12:51;;;;;;;9.03;7.80;;;;;;;17.00;37.71;98443.47;5104868;28;20210;-48
2023/04/11 14:15:44;;;;;;;9.13;8.17;;;;;;;16.95;37.84;98434.25;5091340;28;20201;-51
2023/04/11 14:21:40;;;;;;;9.43;6.83;;;;;;;16.86;38.56;98434.91;5111635;28;20270;-49
2023/04/11 14:24:22;;;;;;;6.57;5.90;;;;;;;16.81;38.30;98426.56;5099906;28;20207;-50
2023/04/11 14:27:06;;;;;;;5.90;5.40;;;;;;;16.77;38.42;98419.84;5090293;28;20205;-49
2023/04/11 14:29:41;;;;;;;6.57;6.03;;;;;;;16.83;38.68;98417.63;5106068;28;20661;-50
2023/04/11 14:32:25;;;;;;;7.87;6.00;;;;;;;16.80;39.37;98417.03;5108498;28;20194;-51
2023/04/11 14:35:01;;;;;;;6.90;6.20;;;;;;;16.79;39.26;98417.97;5107108;28;20221;-48
2023/04/11 14:37:48;;;;;;;7.20;6.53;;;;;;;16.72;39.65;98412.31;5110036;28;20229;-50
2023/04/11 14:40:21;;;;;;;5.93;5.43;;;;;;;16.68;39.01;98411.72;5097316;28;20199;-50
2023/04/11 14:42:51;;;;;;;7.00;6.30;;;;;;;16.69;39.10;98407.31;5105412;28;20515;-50
2023/04/11 14:45:24;;;;;;;6.43;5.93;;;;;;;16.81;39.12;98413.47;5109465;28;20199;-50
2023/04/11 14:48:07;;;;;;;7.07;6.37;;;;;;;16.83;39.14;98409.75;5109269;28;20190;-51
2023/04/11 14:50:43;;;;;;;7.40;6.23;;;;;;;16.62;38.97;98378.06;5107565;28;20217;-48
2023/04/11 14:53:17;;;;;;;6.77;6.10;;;;;;;16.75;39.30;98398.16;5109320;28;20195;-48
2023/04/11 14:56:01;;;;;;;6.60;5.50;;;;;;;16.78;39.04;98397.94;5109606;28;20717;-49
2023/04/11 14:58:44;;;;;;;6.40;5.80;;;;;;;16.74;39.06;98383.38;5109693;28;20230;-48
2023/04/11 15:01:14;;;;;;;11.67;10.27;;;;;;;16.74;39.38;98391.25;5109804;28;20286;-49
2023/04/11 15:04:11;;;;;;;9.33;8.43;;;;;;;16.69;38.21;98395.06;5092163;28;20207;-49
2023/04/11 15:07:38;;;;;;;;;;;;;;;;;;;;;
2023/04/11 15:10:14;;;;;;;6.60;6.00;;;;;;;16.72;37.82;98399.22;5068188;28;20204;-49
2023/04/11 15:12:57;;;;;;;12.70;6.40;;;;;;;16.61;37.72;98397.31;5069385;28;20203;-58
2023/04/11 15:15:45;;;;;;;6.00;5.17;;;;;;;16.59;37.24;98387.94;5069668;28;20207;-58
2023/04/11 15:18:39;;;;;;;9.87;5.77;;;;;;;16.64;37.48;98388.44;5069033;28;20223;-58
2023/04/11 15:21:32;;;;;;;11.27;5.63;;;;;;;16.46;38.02;98387.94;5069581;28;20196;-57
2023/04/11 15:24:27;;;;;;;8.70;5.53;;;;;;;16.56;38.12;98388.13;5068516;28;20250;-59
2023/04/11 15:27:20;;;;;;;5.83;5.33;;;;;;;16.57;38.19;98388.03;5068255;28;20196;-57
2023/04/11 15:30:14;;;;;;;19.93;6.10;;;;;;;16.52;38.35;98387.50;5069429;28;20203;-58
2023/04/11 15:33:11;;;;;;;8.37;5.43;;;;;;;16.54;38.27;98385.63;5069625;28;20733;-58
2023/04/11 15:36:05;;;;;;;9.63;6.10;;;;;;;16.56;37.98;98380.28;5069105;28;20196;-58
2023/04/11 15:39:05;;;;;;;11.27;6.17;;;;;;;16.62;38.02;98388.56;5069642;28;20230;-58
2023/04/11 15:42:07;;;;;;;;;;;;;;;;;;;;;
2023/04/11 15:44:59;;;;;;;7.10;6.33;;;;;;;16.64;38.28;98383.22;5089117;28;20203;-59
2023/04/11 15:47:49;;;;;;;9.43;6.43;;;;;;;16.59;38.26;98370.41;5089862;28;20732;-58
2023/04/11 15:50:33;;;;;;;9.57;5.87;;;;;;;16.55;38.89;98379.44;5088763;28;20195;-58
2023/04/11 15:53:25;;;;;;;8.60;6.53;;;;;;;16.47;38.92;98371.31;5089195;28;20199;-60
2023/04/11 15:56:14;;;;;;;8.17;6.70;;;;;;;16.48;39.02;98372.94;5088619;28;20261;-59
2023/04/11 16:01:51;;;;;;;11.57;6.60;;;;;;;16.40;39.31;98363.97;5089274;28;20483;-48
2023/04/11 16:04:41;;;;;;;8.17;6.07;;;;;;;16.38;39.28;98353.59;5092060;28;20202;-49
2023/04/11 16:07:30;;;;;;;10.03;6.57;;;;;;;16.33;39.16;98347.84;5129551;28;20202;-49
2023/04/11 16:10:16;;;;;;;8.23;6.40;;;;;;;16.35;39.62;98359.06;5129306;28;20229;-49
2023/04/11 16:13:07;;;;;;;6.87;6.27;;;;;;;16.36;38.93;98360.75;5126233;28;20698;-49
2023/04/11 16:15:57;;;;;;;7.03;6.13;;;;;;;16.40;38.70;98356.94;5129267;28;20666;-59
2023/04/11 16:19:03;;;;;;;6.57;5.87;;;;;;;16.33;38.51;98350.47;5128806;28;20218;-58
2023/04/11 16:21:52;;;;;;;7.80;7.00;;;;;;;16.34;38.29;98349.53;5130957;28;20597;-59
2023/04/11 16:24:49;;;;;;;9.33;6.67;;;;;;;16.30;38.41;98354.16;5128368;28;20194;-59
2023/04/11 16:27:43;;;;;;;6.67;6.00;;;;;;;16.30;38.73;98353.31;5129303;28;20308;-57
2023/04/11 16:30:32;;;;;;;5.83;5.33;;;;;;;16.27;38.14;98348.28;5130167;28;20190;-58